Time;durP1;ratioP1;P1;durP2;ratioP2;P2;SDS_P1;SDS_P2;PMS_P1;PMS_P2;Temp;Humidity;BMP_temperature;BMP_pressure;BME280_temperature;BME280_humidity;BME280_pressure;Samples;Min_cycle;Max_cycle;Signal;HPM_P1;HPM_P2
2023/06/04 00:01:37;;;;;;;3.53;2.78;;;;;;;5.78;100.00;98953.41;4155707;28;20410;-69
2023/06/04 00:03:37;;;;;;;6.03;2.53;;;;;;;5.73;100.00;98939.13;4156905;28;20041;-70
2023/06/04 00:05:37;;;;;;;3.55;2.58;;;;;;;5.70;100.00;98945.25;4158266;28;20080;-70
2023/06/04 00:07:38;;;;;;;4.18;2.88;;;;;;;5.72;100.00;98941.06;4157793;28;20045;-70
2023/06/04 00:09:38;;;;;;;4.22;2.90;;;;;;;5.72;100.00;98941.06;4157610;28;20038;-69
2023/06/04 00:11:38;;;;;;;3.38;2.92;;;;;;;5.69;100.00;98940.91;4157960;28;20041;-69
2023/06/04 00:13:39;;;;;;;6.30;3.10;;;;;;;5.62;100.00;98935.94;4156880;28;20776;-69
2023/06/04 00:15:39;;;;;;;4.30;3.03;;;;;;;5.61;100.00;98929.66;4157410;28;20486;-69
2023/06/04 00:17:40;;;;;;;4.03;2.60;;;;;;;5.58;100.00;98935.00;4157654;28;20037;-69
2023/06/04 00:19:41;;;;;;;3.55;2.50;;;;;;;5.50;100.00;98936.69;4157323;28;20108;-69
2023/06/04 00:21:41;;;;;;;5.20;2.72;;;;;;;5.46;100.00;98934.91;4157946;28;20064;-69
2023/06/04 00:23:42;;;;;;;6.20;2.38;;;;;;;5.42;100.00;98932.03;4156741;28;20052;-70
2023/06/04 00:25:42;;;;;;;4.57;3.15;;;;;;;5.38;100.00;98931.13;4157550;28;20049;-69
2023/06/04 00:27:43;;;;;;;5.18;2.60;;;;;;;5.34;100.00;98930.97;4157508;28;20053;-69
2023/06/04 00:29:43;;;;;;;4.47;2.53;;;;;;;5.37;100.00;98934.97;4157198;28;20034;-69
2023/06/04 00:31:44;;;;;;;5.65;2.67;;;;;;;5.41;100.00;98929.66;4157183;28;20049;-69
2023/06/04 00:33:44;;;;;;;4.65;3.00;;;;;;;5.46;100.00;98935.75;4151312;28;20056;-69
2023/06/04 00:35:45;;;;;;;3.70;2.30;;;;;;;5.44;100.00;98929.78;4149089;28;20046;-69
2023/06/04 00:37:45;;;;;;;6.45;3.15;;;;;;;5.46;100.00;98927.53;4149555;28;20045;-69
2023/06/04 00:39:45;;;;;;;5.47;2.38;;;;;;;5.44;100.00;98926.22;4147819;28;20076;-69
2023/06/04 00:41:46;;;;;;;5.72;2.70;;;;;;;5.48;100.00;98927.19;4152700;28;20513;-69
2023/06/04 00:43:55;;;;;;;3.78;2.75;;;;;;;5.46;100.00;98930.25;4155110;28;20056;-69
2023/06/04 00:45:56;;;;;;;6.70;2.50;;;;;;;5.38;100.00;98928.38;4156600;28;20052;-69
2023/06/04 00:47:56;;;;;;;3.13;2.38;;;;;;;5.32;100.00;98913.25;4156888;28;20045;-69
2023/06/04 00:49:58;;;;;;;4.30;2.70;;;;;;;5.32;100.00;98932.44;4156872;28;20081;-69
2023/06/04 00:51:58;;;;;;;4.47;2.65;;;;;;;5.24;100.00;98936.03;4154468;28;20054;-69
2023/06/04 00:54:01;;;;;;;3.78;2.53;;;;;;;5.20;100.00;98921.38;4153574;28;20049;-69
2023/06/04 00:56:05;;;;;;;6.97;3.63;;;;;;;5.08;100.00;98924.84;4155647;28;20494;-70
2023/06/04 00:58:05;;;;;;;8.35;2.83;;;;;;;5.00;100.00;98929.22;4158846;28;20075;-69
2023/06/04 01:00:07;;;;;;;4.60;2.70;;;;;;;4.96;100.00;98928.25;4160004;28;20027;-69
2023/06/04 01:02:22;;;;;;;3.88;2.25;;;;;;;4.93;100.00;98928.94;4159890;28;20365;-69
2023/06/04 01:04:41;;;;;;;5.30;3.00;;;;;;;4.91;100.00;98933.16;4159343;28;20064;-69
2023/06/04 01:06:51;;;;;;;4.25;2.85;;;;;;;4.82;100.00;98927.69;4160214;28;20045;-69
2023/06/04 01:08:54;;;;;;;5.47;2.97;;;;;;;4.78;100.00;98934.97;4160281;28;20030;-69
2023/06/04 01:10:55;;;;;;;4.38;2.90;;;;;;;4.76;100.00;98934.50;4159824;28;20670;-69
2023/06/04 01:12:55;;;;;;;3.83;2.80;;;;;;;4.73;100.00;98929.69;4159033;28;20397;-69
2023/06/04 01:14:56;;;;;;;3.78;2.95;;;;;;;4.69;100.00;98928.72;4160050;28;20750;-69
2023/06/04 01:17:02;;;;;;;6.40;2.90;;;;;;;4.62;100.00;98928.41;4160009;28;20057;-69
2023/06/04 01:19:08;;;;;;;4.63;2.30;;;;;;;4.57;100.00;98929.41;4159506;28;20394;-69
2023/06/04 01:21:12;;;;;;;4.22;2.80;;;;;;;4.59;100.00;98929.88;4159850;28;20562;-69
2023/06/04 01:23:27;;;;;;;3.28;2.33;;;;;;;4.58;100.00;98931.00;4158603;28;20046;-69
2023/06/04 01:25:41;;;;;;;4.53;2.30;;;;;;;4.53;100.00;98935.84;4159784;28;20128;-69
2023/06/04 01:27:41;;;;;;;4.38;2.67;;;;;;;4.48;100.00;98928.63;4160036;28;20045;-69
2023/06/04 01:29:42;;;;;;;4.43;2.53;;;;;;;4.37;100.00;98927.34;4159515;28;20060;-69
2023/06/04 01:31:43;;;;;;;3.85;2.72;;;;;;;4.34;100.00;98928.81;4160138;28;20077;-69
2023/06/04 01:33:43;;;;;;;8.30;2.92;;;;;;;4.29;100.00;98933.66;4158511;28;20485;-69
2023/06/04 01:35:44;;;;;;;4.20;2.50;;;;;;;4.29;100.00;98937.19;4160095;28;20386;-69
2023/06/04 01:37:45;;;;;;;5.50;3.00;;;;;;;4.30;100.00;98930.56;4159493;28;20041;-69
2023/06/04 01:39:45;;;;;;;4.10;2.35;;;;;;;4.24;100.00;98926.44;4162018;28;20053;-69
2023/06/04 01:41:45;;;;;;;4.10;2.50;;;;;;;4.24;100.00;98923.69;4160317;28;20053;-69
2023/06/04 01:43:46;;;;;;;3.13;2.33;;;;;;;4.21;100.00;98930.59;4158798;28;20115;-69
2023/06/04 01:45:47;;;;;;;3.95;3.00;;;;;;;4.18;100.00;98927.72;4159579;28;20070;-70
2023/06/04 01:47:47;;;;;;;3.13;2.55;;;;;;;4.15;100.00;98940.13;4159186;28;20080;-69
2023/06/04 01:49:47;;;;;;;6.85;3.20;;;;;;;4.12;100.00;98942.69;4159764;28;20046;-69
2023/06/04 01:51:48;;;;;;;3.78;2.45;;;;;;;4.03;100.00;98939.97;4159213;28;20076;-69
2023/06/04 01:53:48;;;;;;;5.35;2.92;;;;;;;3.91;100.00;98942.56;4158963;28;20040;-69
2023/06/04 01:55:49;;;;;;;3.90;2.70;;;;;;;3.91;100.00;98943.38;4159611;28;20084;-69
2023/06/04 01:57:50;;;;;;;4.60;2.70;;;;;;;3.88;100.00;98938.53;4159281;28;20758;-69
2023/06/04 01:59:50;;;;;;;4.82;2.60;;;;;;;3.88;100.00;98927.56;4159557;28;20496;-69
2023/06/04 02:01:50;;;;;;;3.75;2.20;;;;;;;3.82;100.00;98934.34;4158719;28;20042;-69
2023/06/04 02:03:52;;;;;;;3.45;2.67;;;;;;;3.82;100.00;98937.09;4158719;28;20117;-69
2023/06/04 02:05:52;;;;;;;4.82;2.70;;;;;;;3.78;100.00;98935.31;4159354;28;20077;-69
2023/06/04 02:07:52;;;;;;;4.60;2.47;;;;;;;3.73;100.00;98944.50;4158635;28;20382;-69
2023/06/04 02:09:53;;;;;;;5.55;2.58;;;;;;;3.67;100.00;98938.38;4159664;28;20092;-69
2023/06/04 02:11:53;;;;;;;6.10;3.00;;;;;;;3.63;100.00;98942.06;4158766;28;20123;-69
2023/06/04 02:13:53;;;;;;;3.78;2.50;;;;;;;3.63;100.00;98942.06;4157484;28;20037;-69
2023/06/04 02:15:54;;;;;;;4.43;2.70;;;;;;;3.61;100.00;98945.13;4160058;28;20560;-69
2023/06/04 02:17:59;;;;;;;4.88;2.42;;;;;;;3.56;100.00;98948.03;4158597;28;20049;-69
2023/06/04 02:20:00;;;;;;;4.05;2.47;;;;;;;3.59;100.00;98952.84;4158621;28;20038;-69
2023/06/04 02:22:00;;;;;;;4.55;2.50;;;;;;;3.57;100.00;98957.03;4158522;28;20041;-69
2023/06/04 02:24:01;;;;;;;4.55;2.80;;;;;;;3.55;100.00;98956.53;4158411;28;20041;-70
2023/06/04 02:26:01;;;;;;;3.75;2.45;;;;;;;3.57;100.00;98949.63;4159150;28;20028;-72
2023/06/04 02:28:01;;;;;;;4.70;2.92;;;;;;;3.54;100.00;98947.53;4158266;28;20599;-69
2023/06/04 02:30:03;;;;;;;4.40;2.60;;;;;;;3.56;100.00;98952.69;4158680;28;20060;-69
2023/06/04 02:32:04;;;;;;;6.32;2.67;;;;;;;3.54;100.00;98952.19;4158745;28;20025;-69
2023/06/04 02:34:04;;;;;;;4.15;2.90;;;;;;;3.58;100.00;98955.91;4157425;28;20103;-69
2023/06/04 02:36:05;;;;;;;8.77;3.00;;;;;;;3.62;100.00;98952.19;4159504;28;20029;-69
2023/06/04 02:38:05;;;;;;;3.78;2.40;;;;;;;3.67;100.00;98954.78;4157997;28;20513;-69
2023/06/04 02:40:06;;;;;;;3.17;2.53;;;;;;;3.64;100.00;98951.88;4160408;28;20037;-69
2023/06/04 02:42:07;;;;;;;3.10;2.35;;;;;;;3.64;100.00;98960.91;4157747;28;20048;-71
2023/06/04 02:44:07;;;;;;;4.53;2.50;;;;;;;3.59;100.00;98955.59;4156611;28;20025;-69
2023/06/04 02:46:08;;;;;;;4.15;2.17;;;;;;;3.56;100.00;98966.38;4142306;28;20051;-69
2023/06/04 02:48:08;;;;;;;3.88;2.80;;;;;;;3.54;100.00;98963.13;4156996;28;20288;-68
2023/06/04 02:50:09;;;;;;;6.45;2.67;;;;;;;3.49;100.00;98957.84;4157276;28;20416;-69
2023/06/04 02:52:09;;;;;;;5.20;2.67;;;;;;;3.51;100.00;98955.59;4158551;28;20423;-69
2023/06/04 02:54:09;;;;;;;4.50;2.60;;;;;;;3.36;100.00;98957.63;4159092;28;20038;-69
2023/06/04 02:56:10;;;;;;;4.80;2.55;;;;;;;3.32;100.00;98959.41;4159095;28;20017;-69
2023/06/04 02:58:10;;;;;;;5.38;2.85;;;;;;;3.29;100.00;98959.22;4158781;28;20045;-69
2023/06/04 03:00:13;;;;;;;4.88;2.90;;;;;;;3.26;100.00;98968.06;4157786;28;20421;-69
2023/06/04 03:02:14;;;;;;;7.53;2.88;;;;;;;3.21;100.00;98958.09;4157777;28;20037;-70
2023/06/04 03:04:15;;;;;;;3.60;2.63;;;;;;;3.22;100.00;98956.16;4157465;28;20519;-69
2023/06/04 03:06:18;;;;;;;4.20;2.60;;;;;;;3.19;100.00;98965.00;4158720;28;20435;-69
2023/06/04 03:08:18;;;;;;;;;;;;;;;3.14;100.00;98963.19;4158284;28;20044;-69
2023/06/04 03:10:19;;;;;;;5.22;2.70;;;;;;;3.13;100.00;98969.00;4158296;28;20373;-69
2023/06/04 03:12:19;;;;;;;3.53;2.60;;;;;;;3.09;100.00;98975.09;4157826;28;20041;-68
2023/06/04 03:14:20;;;;;;;4.13;2.85;;;;;;;3.07;100.00;98962.88;4157462;28;20489;-69
2023/06/04 03:16:21;;;;;;;8.07;2.80;;;;;;;3.05;100.00;98976.84;4157941;28;20460;-68
2023/06/04 03:18:22;;;;;;;5.35;2.70;;;;;;;3.11;100.00;98963.84;4158225;28;20045;-69
2023/06/04 03:20:25;;;;;;;4.43;2.88;;;;;;;3.16;100.00;98974.66;4157463;28;20032;-68
2023/06/04 03:22:26;;;;;;;2.88;2.10;;;;;;;3.15;100.00;98972.25;4157853;28;20297;-69
2023/06/04 03:24:26;;;;;;;6.32;2.50;;;;;;;3.12;100.00;98965.44;4157593;28;20188;-69
2023/06/04 03:26:27;;;;;;;8.02;2.80;;;;;;;3.05;100.00;98971.38;4158036;28;20048;-68
2023/06/04 03:28:28;;;;;;;4.32;2.60;;;;;;;2.99;100.00;98974.59;4157963;28;20061;-69
2023/06/04 03:30:28;;;;;;;3.58;2.28;;;;;;;2.97;100.00;98971.34;4157756;28;20095;-69
2023/06/04 03:32:29;;;;;;;3.78;3.08;;;;;;;3.01;100.00;98973.16;4157253;28;20089;-68
2023/06/04 03:34:31;;;;;;;5.10;2.90;;;;;;;3.04;100.00;98980.72;4158118;28;20042;-68
2023/06/04 03:36:31;;;;;;;4.82;2.47;;;;;;;3.11;100.00;98977.50;4158258;28;20125;-68
2023/06/04 03:38:31;;;;;;;4.30;2.67;;;;;;;3.16;100.00;98973.84;4157807;28;20077;-68
2023/06/04 03:40:32;;;;;;;4.45;2.80;;;;;;;3.19;100.00;98967.72;4157734;28;20101;-68
2023/06/04 03:42:32;;;;;;;7.88;3.25;;;;;;;3.22;100.00;98976.09;4158035;28;20136;-68
2023/06/04 03:44:32;;;;;;;3.72;2.45;;;;;;;3.23;100.00;98976.94;4157553;28;20041;-68
2023/06/04 03:46:33;;;;;;;4.57;2.65;;;;;;;3.25;100.00;98980.16;4157635;28;20095;-68
2023/06/04 03:48:34;;;;;;;5.18;2.70;;;;;;;3.28;100.00;98974.84;4158138;28;20341;-68
2023/06/04 03:50:35;;;;;;;8.90;3.30;;;;;;;3.31;100.00;98978.84;4154697;28;20057;-69
2023/06/04 03:52:35;;;;;;;3.53;2.58;;;;;;;3.31;100.00;98979.69;4156749;28;20063;-69
2023/06/04 03:54:36;;;;;;;4.97;3.00;;;;;;;3.29;100.00;98968.22;4158360;28;20099;-68
2023/06/04 03:56:36;;;;;;;5.97;3.00;;;;;;;3.30;100.00;98975.31;4157893;28;20033;-68
2023/06/04 03:58:36;;;;;;;5.28;3.38;;;;;;;3.32;100.00;98975.81;4157404;28;20183;-68
2023/06/04 04:00:37;;;;;;;4.07;2.80;;;;;;;3.34;100.00;98981.78;4156866;28;20056;-69
2023/06/04 04:02:37;;;;;;;5.75;2.58;;;;;;;3.45;100.00;98978.72;4158066;28;20470;-68
2023/06/04 04:04:38;;;;;;;5.78;2.75;;;;;;;3.58;100.00;98981.34;4158446;28;20197;-68
2023/06/04 04:06:38;;;;;;;4.53;2.65;;;;;;;3.73;100.00;98977.34;4157116;28;20042;-68
2023/06/04 04:08:42;;;;;;;5.00;2.60;;;;;;;3.90;100.00;98984.75;4158015;28;20056;-68
2023/06/04 04:10:42;;;;;;;4.07;2.53;;;;;;;4.04;100.00;98979.09;4157853;28;20387;-69
2023/06/04 04:12:42;;;;;;;4.68;2.75;;;;;;;4.06;100.00;98985.09;4154583;28;20056;-69
2023/06/04 04:14:43;;;;;;;9.68;3.08;;;;;;;4.06;100.00;98983.16;4158718;28;20045;-68
2023/06/04 04:16:43;;;;;;;4.40;3.05;;;;;;;4.16;100.00;98992.97;4158783;28;20068;-68
2023/06/04 04:18:44;;;;;;;5.00;2.97;;;;;;;4.21;100.00;98984.56;4157194;28;20061;-68
2023/06/04 04:20:45;;;;;;;8.70;3.22;;;;;;;4.20;100.00;98981.03;4157281;28;20045;-68
2023/06/04 04:22:46;;;;;;;4.90;3.00;;;;;;;4.17;100.00;98984.44;4156641;28;20049;-68
2023/06/04 04:24:46;;;;;;;6.70;3.28;;;;;;;4.25;100.00;98987.50;4157726;28;20080;-68
2023/06/04 04:26:48;;;;;;;4.95;2.63;;;;;;;4.23;100.00;98987.81;4156816;28;20046;-68
2023/06/04 04:28:49;;;;;;;4.50;3.13;;;;;;;4.22;100.00;98978.78;4153677;28;20046;-68
2023/06/04 04:30:50;;;;;;;2.83;2.20;;;;;;;4.23;100.00;98974.13;4157734;28;20033;-68
2023/06/04 04:32:50;;;;;;;4.30;2.80;;;;;;;4.29;100.00;98981.03;4159259;28;20510;-69
2023/06/04 04:34:53;;;;;;;4.65;2.60;;;;;;;4.36;100.00;98983.28;4159976;28;20540;-69
2023/06/04 04:36:54;;;;;;;;;;;;;;;4.45;100.00;98987.59;4160802;28;20059;-69
2023/06/04 04:38:54;;;;;;;6.45;2.65;;;;;;;4.54;100.00;98993.06;4157686;28;19941;-69
2023/06/04 04:40:55;;;;;;;4.00;2.40;;;;;;;4.67;100.00;98983.06;4158667;28;20037;-68
2023/06/04 04:42:56;;;;;;;3.75;2.22;;;;;;;4.84;100.00;98985.75;4158775;28;20517;-68
2023/06/04 04:44:56;;;;;;;4.32;2.42;;;;;;;4.96;100.00;98985.84;4160012;28;20161;-68
2023/06/04 04:46:56;;;;;;;3.70;2.25;;;;;;;5.06;100.00;98985.50;4159932;28;20091;-68
2023/06/04 04:48:57;;;;;;;4.25;2.42;;;;;;;5.15;100.00;98987.41;4159688;28;20125;-68
2023/06/04 04:50:58;;;;;;;4.20;2.42;;;;;;;5.23;100.00;98984.63;4160155;28;20049;-68
2023/06/04 04:52:58;;;;;;;4.07;2.58;;;;;;;5.29;100.00;98980.53;4159372;28;20487;-69
2023/06/04 04:54:59;;;;;;;2.83;2.20;;;;;;;5.43;100.00;98987.75;4159652;28;20218;-68
2023/06/04 04:56:59;;;;;;;4.75;2.55;;;;;;;5.53;100.00;98984.59;4159600;28;20041;-69
2023/06/04 04:59:00;;;;;;;3.42;2.30;;;;;;;5.66;100.00;98991.00;4159804;28;20924;-68
2023/06/04 05:01:00;;;;;;;3.58;2.10;;;;;;;5.79;100.00;98992.66;4158096;28;20111;-69
2023/06/04 05:03:00;;;;;;;6.60;3.33;;;;;;;5.86;100.00;98985.50;4156915;28;20053;-69
2023/06/04 05:05:01;;;;;;;3.72;2.38;;;;;;;5.95;100.00;98982.72;4159614;28;20107;-69
2023/06/04 05:07:01;;;;;;;4.15;2.40;;;;;;;6.06;100.00;98991.38;4159667;28;20450;-69
2023/06/04 05:09:01;;;;;;;4.07;2.58;;;;;;;6.18;100.00;98994.19;4159625;28;20033;-69
2023/06/04 05:11:02;;;;;;;11.68;2.70;;;;;;;6.28;100.00;98998.44;4159411;28;20059;-69
2023/06/04 05:13:02;;;;;;;4.57;2.75;;;;;;;6.36;100.00;98989.31;4156798;28;20545;-68
2023/06/04 05:15:03;;;;;;;4.85;2.55;;;;;;;6.46;100.00;98991.69;4159227;28;20049;-69
2023/06/04 05:17:03;;;;;;;10.65;2.90;;;;;;;6.59;100.00;98992.50;4159451;28;20428;-69
2023/06/04 05:19:04;;;;;;;6.85;2.60;;;;;;;6.69;100.00;98995.63;4160075;28;20059;-69
2023/06/04 05:21:04;;;;;;;4.22;2.45;;;;;;;6.80;100.00;98996.03;4159409;28;20044;-69
2023/06/04 05:23:05;;;;;;;6.20;2.97;;;;;;;6.90;100.00;98997.53;4157911;28;20089;-69
2023/06/04 05:25:06;;;;;;;4.40;2.33;;;;;;;7.00;100.00;98994.31;4156968;28;20213;-69
2023/06/04 05:27:09;;;;;;;4.07;2.22;;;;;;;7.11;100.00;98998.22;4158174;28;20053;-69
2023/06/04 05:29:09;;;;;;;5.95;2.60;;;;;;;7.22;100.00;99001.34;4157403;28;20049;-69
2023/06/04 05:31:13;;;;;;;3.88;3.03;;;;;;;7.30;100.00;99001.25;4158995;28;20038;-69
2023/06/04 05:33:17;;;;;;;5.47;2.70;;;;;;;7.42;100.00;98996.88;4158802;28;20332;-69
2023/06/04 05:35:18;;;;;;;8.48;2.85;;;;;;;7.53;100.00;99000.75;4159397;28;20034;-69
2023/06/04 05:37:18;;;;;;;4.15;2.83;;;;;;;7.60;100.00;99006.50;4155711;28;20088;-69
2023/06/04 05:39:20;;;;;;;3.75;2.80;;;;;;;7.68;100.00;99005.56;4157276;28;20151;-69
2023/06/04 05:41:23;;;;;;;5.50;2.60;;;;;;;7.80;100.00;99005.56;4158875;28;20045;-69
2023/06/04 05:43:24;;;;;;;5.32;2.63;;;;;;;7.89;100.00;99010.94;4157425;28;20037;-69
2023/06/04 05:45:24;;;;;;;7.07;3.13;;;;;;;7.97;100.00;99015.53;4159015;28;20064;-69
2023/06/04 05:47:24;;;;;;;10.38;2.63;;;;;;;8.07;100.00;99006.78;4159154;28;20030;-69
2023/06/04 05:49:26;;;;;;;9.05;3.13;;;;;;;8.11;100.00;99007.69;4159568;28;20533;-69
2023/06/04 05:51:26;;;;;;;5.35;3.00;;;;;;;8.19;100.00;99011.44;4159427;28;20045;-69
2023/06/04 05:53:26;;;;;;;7.80;3.17;;;;;;;8.31;100.00;99016.13;4159006;28;21209;-69
2023/06/04 05:55:28;;;;;;;9.75;3.33;;;;;;;8.37;100.00;99020.28;4158726;28;20060;-69
2023/06/04 05:57:28;;;;;;;5.40;2.70;;;;;;;8.41;100.00;99008.19;4159530;28;20611;-69
2023/06/04 05:59:29;;;;;;;5.57;2.97;;;;;;;8.51;100.00;99006.88;4158907;28;20061;-69
2023/06/04 06:01:29;;;;;;;6.88;3.20;;;;;;;8.61;100.00;99009.16;4115690;28;20136;-69
2023/06/04 06:03:29;;;;;;;4.90;2.83;;;;;;;8.71;100.00;99005.88;4165717;28;20041;-69
2023/06/04 06:05:30;;;;;;;9.13;2.85;;;;;;;8.78;100.00;99007.22;4159002;28;20493;-69
2023/06/04 06:07:30;;;;;;;4.57;2.92;;;;;;;8.85;100.00;99005.44;4158733;28;20072;-69
2023/06/04 06:09:31;;;;;;;6.38;2.55;;;;;;;8.96;100.00;99009.28;4143908;28;20133;-69
2023/06/04 06:11:31;;;;;;;8.20;3.17;;;;;;;9.05;100.00;99005.56;4158231;28;20041;-69
2023/06/04 06:13:31;;;;;;;4.32;2.50;;;;;;;9.14;100.00;99004.22;4158534;28;20132;-69
2023/06/04 06:15:32;;;;;;;5.97;2.60;;;;;;;9.25;100.00;99005.28;4160104;28;20059;-69
2023/06/04 06:17:33;;;;;;;4.10;2.40;;;;;;;9.33;98.36;99011.78;4159583;28;20124;-69
2023/06/04 06:19:37;;;;;;;6.30;3.03;;;;;;;9.41;98.17;99004.50;4158870;28;20033;-69
2023/06/04 06:21:37;;;;;;;5.57;2.90;;;;;;;9.53;97.48;99007.16;4159348;28;20090;-69
2023/06/04 06:23:37;;;;;;;5.95;2.53;;;;;;;9.62;97.65;99009.75;4158008;28;20466;-69
2023/06/04 06:25:40;;;;;;;3.47;3.00;;;;;;;9.68;95.16;99011.03;4158816;28;20041;-69
2023/06/04 06:27:40;;;;;;;5.07;3.10;;;;;;;9.77;94.66;99018.00;4158395;28;20033;-69
2023/06/04 06:29:41;;;;;;;6.15;3.10;;;;;;;9.87;94.06;99015.84;4158424;28;20043;-69
2023/06/04 06:31:42;;;;;;;3.53;3.00;;;;;;;9.97;93.07;99026.34;4159008;28;20489;-69
2023/06/04 06:33:42;;;;;;;4.30;2.97;;;;;;;10.04;93.48;99024.53;4158304;28;20069;-69
2023/06/04 06:35:46;;;;;;;4.60;2.80;;;;;;;10.16;93.62;99033.84;4158884;28;20155;-69
2023/06/04 06:37:46;;;;;;;7.07;3.15;;;;;;;10.29;91.47;99030.63;4158092;28;20053;-69
2023/06/04 06:39:46;;;;;;;4.63;2.90;;;;;;;10.43;90.79;99037.66;4158981;28;20327;-69
2023/06/04 06:41:47;;;;;;;4.57;2.88;;;;;;;10.49;91.12;99034.19;4158728;28;20706;-69
2023/06/04 06:43:47;;;;;;;5.55;2.78;;;;;;;10.64;90.74;99035.28;4157704;28;20322;-69
2023/06/04 06:45:47;;;;;;;5.03;3.10;;;;;;;10.76;89.31;99050.94;4158759;28;20094;-69
2023/06/04 06:47:48;;;;;;;4.78;2.95;;;;;;;10.86;88.84;99050.38;4158485;28;20045;-69
2023/06/04 06:49:48;;;;;;;6.32;2.80;;;;;;;10.92;87.38;99049.72;4158669;28;20045;-69
2023/06/04 06:51:48;;;;;;;4.47;2.90;;;;;;;10.99;87.62;99049.03;4158338;28;20038;-69
2023/06/04 06:53:50;;;;;;;4.32;2.58;;;;;;;11.06;87.51;99049.16;4157569;28;20092;-69
2023/06/04 06:55:51;;;;;;;3.50;2.85;;;;;;;11.14;86.08;99050.88;4158392;28;20189;-69
2023/06/04 06:57:51;;;;;;;3.30;2.63;;;;;;;11.22;85.41;99052.63;4158501;28;20068;-69
2023/06/04 06:59:53;;;;;;;4.28;2.50;;;;;;;11.27;85.29;99048.75;4157184;28;20348;-69
2023/06/04 07:01:54;;;;;;;6.68;2.97;;;;;;;11.30;86.06;99055.53;4157269;28;20121;-69
2023/06/04 07:03:54;;;;;;;5.35;2.80;;;;;;;11.37;86.17;99047.34;4157382;28;20076;-69
2023/06/04 07:05:55;;;;;;;5.05;3.33;;;;;;;11.44;87.30;99056.59;4155205;28;20096;-69
2023/06/04 07:07:57;;;;;;;4.75;2.70;;;;;;;11.53;83.38;99042.47;4152957;28;20057;-69
2023/06/04 07:09:57;;;;;;;3.80;2.20;;;;;;;11.65;82.40;99038.69;4148379;28;20045;-69
2023/06/04 07:11:57;;;;;;;3.35;2.47;;;;;;;11.74;81.46;99040.03;4154839;28;20276;-69
2023/06/04 07:13:57;;;;;;;4.03;2.60;;;;;;;11.85;80.80;99045.00;4157153;28;20041;-69
2023/06/04 07:15:59;;;;;;;3.67;2.58;;;;;;;11.96;81.62;99043.97;4156415;28;20041;-69
2023/06/04 07:17:59;;;;;;;6.20;2.80;;;;;;;12.06;80.47;99050.84;4152894;28;20075;-69
2023/06/04 07:20:00;;;;;;;3.55;2.83;;;;;;;12.12;82.66;99046.59;4150137;28;20037;-69
2023/06/04 07:22:00;;;;;;;8.85;5.43;;;;;;;12.21;82.51;99051.84;4153945;28;20469;-69
2023/06/04 07:24:00;;;;;;;4.43;2.60;;;;;;;12.34;83.27;99047.69;4155850;28;20038;-69
2023/06/04 07:26:01;;;;;;;5.00;2.50;;;;;;;12.42;81.97;99049.38;4149162;28;20042;-69
2023/06/04 07:28:03;;;;;;;5.97;2.80;;;;;;;12.47;81.18;99048.22;4149861;28;20074;-70
2023/06/04 07:30:07;;;;;;;3.90;2.53;;;;;;;12.60;82.63;99050.41;4150253;28;20436;-69
2023/06/04 07:32:08;;;;;;;3.65;2.88;;;;;;;12.69;80.84;99046.53;4149848;28;20033;-70
2023/06/04 07:34:08;;;;;;;5.28;2.92;;;;;;;12.74;81.23;99043.41;4151381;28;20458;-69
2023/06/04 07:36:15;;;;;;;5.15;3.00;;;;;;;12.81;82.62;99052.63;4149911;28;20919;-70
2023/06/04 07:38:16;;;;;;;6.28;2.72;;;;;;;12.94;81.85;99042.06;4155229;28;20037;-69
2023/06/04 07:40:17;;;;;;;3.53;2.30;;;;;;;13.07;79.67;99037.03;4149788;28;20386;-70
2023/06/04 07:42:17;;;;;;;6.13;3.35;;;;;;;13.19;79.78;99037.59;4149357;28;20469;-69
2023/06/04 07:44:17;;;;;;;3.22;2.10;;;;;;;13.26;75.78;99034.09;4152451;28;20421;-70
2023/06/04 07:46:20;;;;;;;5.55;2.42;;;;;;;13.31;74.98;99032.94;4155502;28;20061;-69
2023/06/04 07:48:21;;;;;;;5.03;2.60;;;;;;;13.46;78.35;99034.66;4156473;28;20049;-69
2023/06/04 07:50:21;;;;;;;3.22;2.30;;;;;;;13.56;78.12;99036.72;4157036;28;20133;-69
2023/06/04 07:52:22;;;;;;;4.10;2.28;;;;;;;13.69;80.09;99038.03;4155465;28;20453;-69
2023/06/04 07:54:23;;;;;;;4.25;2.22;;;;;;;13.82;80.63;99040.50;4156931;28;20033;-69
2023/06/04 07:56:23;;;;;;;4.70;2.60;;;;;;;13.92;78.62;99034.25;4158020;28;20116;-69
2023/06/04 07:58:23;;;;;;;4.85;2.70;;;;;;;14.00;79.42;99035.88;4157085;28;20129;-69
2023/06/04 08:00:24;;;;;;;3.35;2.75;;;;;;;14.05;76.66;99041.88;4158140;28;20493;-69
2023/06/04 08:02:25;;;;;;;4.20;2.35;;;;;;;14.06;77.19;99034.31;4155957;28;20138;-69
2023/06/04 08:04:25;;;;;;;4.75;2.38;;;;;;;14.10;75.67;99032.38;4157443;28;20041;-70
2023/06/04 08:06:26;;;;;;;5.13;2.38;;;;;;;14.20;78.57;99037.19;4159616;28;20083;-69
2023/06/04 08:08:26;;;;;;;6.35;2.33;;;;;;;14.30;76.87;99032.88;4160676;28;20484;-69
2023/06/04 08:10:27;;;;;;;3.58;2.00;;;;;;;14.38;74.20;99025.34;4161987;28;20033;-69
2023/06/04 08:12:27;;;;;;;3.63;1.67;;;;;;;14.51;76.60;99032.22;4162775;28;20172;-69
2023/06/04 08:14:28;;;;;;;3.28;2.00;;;;;;;14.65;74.38;99034.28;4159721;28;20041;-70
2023/06/04 08:16:28;;;;;;;2.38;1.80;;;;;;;14.78;75.72;99033.50;4162375;28;20049;-70
2023/06/04 08:18:28;;;;;;;3.00;1.90;;;;;;;14.92;72.80;99029.19;4162149;28;20111;-70
2023/06/04 08:20:29;;;;;;;4.90;1.77;;;;;;;15.04;75.82;99032.41;4163148;28;20485;-70
2023/06/04 08:22:29;;;;;;;3.10;2.00;;;;;;;15.20;68.99;99031.25;4161767;28;20128;-70
2023/06/04 08:24:30;;;;;;;3.70;2.13;;;;;;;15.35;67.76;99032.84;4160261;28;20025;-70
2023/06/04 08:26:30;;;;;;;2.95;1.95;;;;;;;15.49;67.39;99034.88;4159969;28;20056;-70
2023/06/04 08:28:30;;;;;;;8.63;2.40;;;;;;;15.58;66.80;99038.84;4160401;28;20045;-70
2023/06/04 08:30:31;;;;;;;3.03;2.03;;;;;;;15.64;62.20;99031.72;4160893;28;20029;-70
2023/06/04 08:32:32;;;;;;;5.20;1.73;;;;;;;15.78;62.59;99036.47;4160406;28;20045;-70
2023/06/04 08:34:33;;;;;;;2.95;1.80;;;;;;;15.79;62.93;99032.50;4160454;28;20049;-70
2023/06/04 08:36:33;;;;;;;2.97;2.38;;;;;;;15.89;61.57;99037.28;4160371;28;20048;-70
2023/06/04 08:38:33;;;;;;;4.05;2.00;;;;;;;16.03;62.07;99028.09;4160582;28;20056;-70
2023/06/04 08:40:36;;;;;;;5.03;2.00;;;;;;;16.07;59.67;99037.25;4161002;28;20496;-70
2023/06/04 08:42:46;;;;;;;2.75;1.90;;;;;;;16.01;59.02;99033.28;4159666;28;20508;-70
2023/06/04 08:44:53;;;;;;;2.55;1.63;;;;;;;16.07;57.91;99040.06;4159763;28;20037;-70
2023/06/04 08:47:01;;;;;;;3.72;1.80;;;;;;;16.21;58.82;99042.78;4159130;28;21896;-70
2023/06/04 08:49:03;;;;;;;2.85;1.75;;;;;;;16.22;55.02;99038.03;4159162;28;20045;-70
2023/06/04 08:51:08;;;;;;;8.05;2.13;;;;;;;16.27;57.07;99032.81;4160373;28;20466;-70
2023/06/04 08:53:11;;;;;;;3.42;2.20;;;;;;;16.38;56.39;99031.97;4158554;28;20049;-70
2023/06/04 08:55:16;;;;;;;3.75;2.10;;;;;;;16.42;57.23;99030.78;4159992;28;20053;-70
2023/06/04 08:57:19;;;;;;;3.75;2.00;;;;;;;16.48;55.84;99031.19;4158976;28;20045;-69
2023/06/04 08:59:20;;;;;;;2.75;1.90;;;;;;;16.48;55.60;99028.38;4160567;28;20543;-70
2023/06/04 09:01:20;;;;;;;3.33;1.80;;;;;;;16.55;56.33;99036.75;4159326;28;20050;-70
2023/06/04 09:03:21;;;;;;;8.23;1.77;;;;;;;16.59;56.43;99034.72;4159325;28;20062;-70
2023/06/04 09:05:22;;;;;;;3.17;2.00;;;;;;;16.66;56.65;99025.53;4160280;28;20406;-70
2023/06/04 09:07:24;;;;;;;3.92;1.90;;;;;;;16.76;56.70;99028.28;4160033;28;20055;-70
2023/06/04 09:09:25;;;;;;;2.92;1.70;;;;;;;16.83;57.53;99027.47;4159370;28;20041;-70
2023/06/04 09:11:35;;;;;;;5.40;1.90;;;;;;;16.95;57.87;99029.78;4162080;28;20049;-70
2023/06/04 09:13:36;;;;;;;5.15;1.75;;;;;;;16.96;57.08;99027.78;4159976;28;20055;-70
2023/06/04 09:15:36;;;;;;;2.50;1.83;;;;;;;16.98;57.55;99019.81;4159970;28;20037;-70
2023/06/04 09:17:37;;;;;;;2.50;1.85;;;;;;;17.18;57.20;99029.25;4159052;28;20436;-70
2023/06/04 09:19:37;;;;;;;3.50;1.60;;;;;;;17.35;56.05;99022.75;4160086;28;20055;-70
2023/06/04 09:21:57;;;;;;;2.05;1.75;;;;;;;17.50;53.96;99039.44;4160150;28;20462;-70
2023/06/04 09:23:58;;;;;;;14.57;3.28;;;;;;;17.54;55.71;99029.00;4159008;28;20049;-70
2023/06/04 09:26:07;;;;;;;5.50;1.80;;;;;;;17.55;56.50;99022.22;4159734;28;20060;-70
2023/06/04 09:28:07;;;;;;;20.83;2.67;;;;;;;17.59;56.79;99034.16;4160136;28;20128;-70
2023/06/04 09:30:09;;;;;;;3.42;1.92;;;;;;;17.48;53.73;99034.25;4159384;28;20026;-70
2023/06/04 09:32:09;;;;;;;3.75;2.20;;;;;;;17.52;57.74;99029.41;4159909;28;20036;-70